Date,TemperatureHighF,TemperatureAvgF,TemperatureLowF,DewpointHighF,DewpointAvgF,DewpointLowF,HumidityHigh,HumidityAvg,HumidityLow,PressureMaxIn,PressureMinIn,WindSpeedMaxMPH,WindSpeedAvgMPH,GustSpeedMaxMPH,PrecipitationSumIn
2013-1-1,37,31,24,37,31,24,99,99,99,28.79,28.59,10,5,10,0.01
2013-1-2,36,27,21,27,22,19,99,85,56,28.81,28.73,7,2,7,0.00
2013-1-3,43,30,19,31,25,18,99,84,54,28.97,28.80,8,1,8,0.00
2013-1-4,48,34,20,28,25,19,99,72,41,29.14,28.88,9,3,9,0.00
2013-1-5,43,37,30,35,30,23,93,78,69,28.88,28.73,13,5,13,0.00
2013-1-6,46,33,24,32,25,20,99,76,41,29.14,28.78,10,3,10,0.00
2013-1-7,53,36,21,31,25,19,96,69,38,28.90,28.67,13,3,13,0.00
2013-1-8,60,42,26,47,36,22,99,79,53,28.77,28.60,13,3,13,0.32
2013-1-9,54,49,46,48,45,39,99,85,64,29.13,28.76,16,4,16,0.06
2013-1-10,58,50,45,56,48,41,99,94,73,28.77,28.39,12,5,12,0.08
2013-1-11,66,55,43,48,46,42,99,75,48,28.46,28.32,20,8,20,0.00
2013-1-12,57,43,29,52,38,29,99,86,52,28.52,28.35,15,8,15,0.35
2013-1-13,29,23,14,28,21,13,99,93,82,28.88,28.51,14,6,14,0.00
2013-1-14,35,22,12,20,16,9,99,79,49,29.13,28.86,10,3,10,0.00
2013-1-15,36,25,16,24,18,14,96,79,50,28.86,28.70,8,3,8,0.00
2013-1-16,43,29,14,23,19,13,99,71,41,28.75,28.65,7,2,7,0.00
2013-1-17,76,34,24,65,26,18,92,74,53,29.03,28.73,13,3,13,0.00
2013-1-18,58,39,22,33,28,21,99,68,34,29.05,28.76,15,5,15,0.00
2013-1-19,64,49,38,39,34,27,83,57,39,28.76,28.63,15,6,15,0.00
2013-1-20,62,44,29,37,30,20,90,62,37,28.82,28.68,13,3,13,0.00
2013-1-21,39,28,21,21,17,14,77,64,42,28.93,28.82,13,5,13,0.00
2013-1-22,49,32,18,28,21,14,93,67,44,28.86,28.75,10,2,10,0.00
2013-1-23,61,42,24,46,35,21,97,77,55,28.81,28.70,10,2,10,0.00
2013-1-24,43,38,32,34,24,18,88,57,44,28.87,28.66,11,5,11,0.00
2013-1-25,51,38,30,36,32,29,99,81,53,28.81,28.67,8,2,8,0.00
2013-1-26,63,45,31,32,27,22,91,54,23,28.82,28.69,9,3,9,0.00
2013-1-27,59,53,45,56,49,32,94,85,58,28.69,28.50,22,8,22,0.00
2013-1-28,73,66,58,63,62,56,95,86,72,28.55,28.41,20,11,20,0.00
2013-1-29,68,60,46,65,58,46,99,93,84,28.41,28.06,21,8,21,1.79
2013-1-30,46,46,46,46,46,46,99,99,99,28.09,28.09,2,2,2,0.00
2013-1-31,46,46,46,46,46,46,99,99,99,28.09,28.09,2,2,2,0.00
2013-2-1,46,46,46,46,46,46,99,99,99,28.09,28.09,2,2,2,0.00
2013-2-2,54,46,39,46,40,31,99,82,44,28.77,28.09,10,3,10,0.01
2013-2-3,56,43,34,32,28,22,77,56,31,28.84,28.54,9,4,9,0.00
2013-2-4,62,49,36,48,38,28,90,68,47,28.54,28.40,17,5,18,0.29
2013-2-5,66,46,29,52,35,29,99,73,33,28.63,28.49,9,2,9,0.00
2013-2-6,39,37,35,34,33,32,91,86,83,28.66,28.62,5,0,5,0.00
2013-2-7,38,38,38,34,34,34,85,85,85,28.66,28.66,0,0,0,0.00
2013-2-8,38,38,38,34,34,34,85,85,85,28.66,28.66,0,0,0,0.00
2013-2-9,51,41,38,42,36,30,99,83,51,28.66,28.41,10,2,10,0.16
2013-2-10,61,52,41,54,40,28,99,69,33,28.60,28.22,19,7,19,0.41
2013-2-11,41,40,32,28,28,24,81,62,51,28.71,28.60,5,4,5,0.00
2013-2-12,34,29,29,29,26,25,91,87,77,28.70,28.63,3,1,3,0.00
2013-2-13,29,29,29,26,26,26,88,88,88,28.63,28.63,2,2,2,0.00
2013-2-14,29,29,29,26,26,26,88,88,88,28.63,28.63,2,2,2,0.00
2013-2-15,29,29,29,26,26,26,88,88,88,28.63,28.63,2,2,2,0.00
2013-2-16,29,29,29,26,26,26,88,88,88,28.63,28.63,2,2,2,0.00
2013-2-17,62,39,29,59,28,26,88,71,32,28.63,28.45,13,4,13,0.00
2013-2-18,62,57,34,35,32,14,78,41,32,28.66,28.45,17,9,17,0.00
2013-2-19,47,35,24,27,22,17,79,59,42,28.86,28.66,15,4,15,0.00
2013-2-20,36,31,26,32,23,14,93,73,53,28.85,28.63,8,3,8,0.10
2013-2-21,32,32,32,26,26,26,80,80,80,28.64,28.64,3,3,3,0.00
2013-2-22,32,32,32,26,26,26,80,80,80,28.64,28.64,3,3,3,0.00
2013-2-23,32,32,32,26,26,26,80,80,80,28.64,28.64,3,3,3,0.00
2013-2-24,60,37,32,35,28,26,80,73,40,28.64,28.40,9,3,9,0.03
2013-2-25,40,40,40,32,32,32,74,74,74,28.43,28.43,5,5,5,0.00
2013-2-26,40,40,40,32,32,32,74,74,74,28.43,28.43,5,5,5,0.00
2013-2-27,40,40,40,32,32,32,74,74,74,28.43,28.43,5,5,5,0.00
2013-2-28,40,40,40,32,32,32,74,74,74,28.43,28.43,5,5,5,0.00
2013-3-1,40,32,30,32,27,26,84,81,74,28.73,28.43,5,2,5,0.00
2013-3-2,34,30,24,26,24,18,88,76,60,28.86,28.73,10,3,10,0.00
2013-3-3,53,41,23,29,26,20,93,60,40,28.74,28.60,12,5,12,0.00
2013-3-4,52,52,52,29,29,29,41,41,41,28.60,28.60,9,9,9,0.00
2013-3-5,52,52,52,29,29,29,41,41,41,28.60,28.60,9,9,9,0.00
2013-3-6,52,52,52,29,29,29,41,41,41,28.60,28.60,9,9,9,0.00
2013-3-7,52,51,45,33,29,29,61,44,41,28.75,28.60,9,8,9,0.00
2013-3-8,46,46,46,33,33,33,60,60,60,28.75,28.75,2,2,2,0.00
2013-3-9,58,48,46,58,36,33,99,66,60,28.75,28.25,10,2,10,1.14
2013-3-10,56,46,30,55,46,29,99,99,96,28.51,28.24,13,6,13,0.30
2013-3-11,36,30,30,29,29,22,99,96,59,28.59,28.51,5,4,5,0.00
2013-3-12,43,31,31,25,25,24,77,77,47,28.59,28.59,8,0,0,0.00
2013-3-14,56,52,55,48,33,-100,77,59,61,30.16,28.68,4,-75,0,0.00
2013-3-15,81,65,48,50,47,43,86,55,31,30.14,29.81,13,6,0,0.01
2013-3-16,77,63,50,55,48,42,77,59,44,29.88,29.78,11,5,0,0.00
2013-3-17,50,44,40,43,42,39,99,93,73,29.91,29.71,9,3,0,0.24
2013-3-18,55,44,37,45,37,29,99,79,47,30.09,28.57,9,3,0,0.02
2013-3-19,59,44,31,32,28,22,92,58,26,28.81,28.58,15,3,15,0.00
2013-3-20,50,37,28,32,24,17,97,64,34,30.35,28.67,16,4,16,0.00
2013-3-21,34,31,30,34,23,19,99,73,63,30.08,28.38,9,3,9,0.35
2013-3-22,40,36,32,40,36,32,99,99,97,29.91,28.39,8,3,8,0.80
2013-3-23,41,38,36,41,38,35,99,99,99,29.88,28.27,8,3,8,0.06
2013-3-24,40,33,26,40,31,23,99,95,82,30.11,28.20,17,6,17,0.33
2013-3-25,34,28,23,27,24,20,94,84,68,30.29,28.64,13,4,13,0.00
2013-3-26,48,32,21,29,24,21,99,74,42,30.37,28.84,11,2,11,0.00
2013-3-27,61,43,24,34,28,22,95,61,27,30.26,28.69,12,3,12,0.00
2013-3-28,72,57,43,51,42,31,77,60,48,30.14,28.68,15,4,15,0.00
2013-3-29,71,59,51,60,54,49,99,85,62,30.12,28.66,8,2,8,0.91
2013-3-30,72,59,52,61,56,52,99,90,67,30.03,28.46,11,3,11,1.77
2013-3-31,69,57,48,56,48,41,99,77,38,28.56,28.43,20,3,20,0.06
2013-4-1,64,48,38,48,42,34,99,80,51,30.09,28.54,13,5,13,0.01
2013-4-2,42,37,35,38,36,34,99,96,72,30.16,28.73,10,5,10,1.49
2013-4-3,52,43,35,41,31,26,96,65,43,30.14,28.71,14,4,14,0.43
2013-4-4,58,46,39,41,38,33,98,74,45,30.05,28.62,10,3,10,0.35
2013-4-5,41,32,32,35,30,30,96,92,77,30.04,28.69,0,0,0,0.00
2013-4-6,32,32,32,30,30,30,94,94,94,30.04,28.71,0,0,0,0.00
2013-4-7,78,47,32,72,42,30,94,84,54,30.03,28.33,18,3,18,0.00
2013-4-8,73,65,60,65,61,56,99,85,75,29.70,28.30,16,6,16,0.49
2013-4-9,82,71,63,69,63,59,88,77,62,29.69,28.29,14,7,14,0.00
2013-4-10,73,47,36,67,46,36,99,96,77,29.79,28.31,15,4,15,1.84
2013-4-11,36,35,33,36,34,33,99,94,91,29.79,28.37,9,4,9,0.01
2013-4-12,36,36,36,34,34,34,91,91,91,29.75,28.41,5,5,5,0.00
2013-4-13,71,48,36,62,40,34,91,78,49,29.89,28.37,15,5,15,0.02
2013-4-14,81,67,52,56,51,47,83,59,38,29.72,28.13,21,8,21,0.00
2013-4-15,80,68,56,69,61,53,93,80,66,29.76,28.25,15,6,15,0.00
2013-4-16,82,62,51,69,58,51,99,90,62,29.91,28.40,10,4,10,0.00
2013-4-17,84,71,56,73,65,55,99,84,65,29.88,28.22,20,7,20,0.00
2013-4-18,75,49,37,69,46,32,99,92,79,29.91,28.14,15,6,18,8.43
2013-4-19,56,44,32,35,31,27,87,64,37,30.02,28.55,11,4,11,0.00
2013-4-20,71,52,33,43,38,32,99,62,31,30.12,28.65,10,2,10,0.00
2013-4-21,71,58,46,48,42,38,83,59,34,30.20,28.68,13,4,13,0.00
2013-4-22,75,59,42,51,44,38,92,61,39,30.12,28.48,13,4,13,0.00
2013-4-23,61,50,36,57,46,36,99,90,69,30.03,28.39,10,5,10,0.19
2013-4-24,58,43,34,39,34,28,99,73,39,30.24,28.67,12,4,12,0.00
2013-4-25,73,53,29,42,35,23,99,57,25,30.29,28.77,10,2,10,0.00
2013-4-26,57,51,47,51,48,38,99,91,51,30.26,28.67,14,5,14,2.31
2013-4-27,58,56,50,58,55,50,99,99,99,30.05,28.52,12,2,12,1.95
2013-4-28,58,58,58,58,57,57,99,99,99,29.95,28.59,2,2,2,0.00
2013-4-29,58,58,58,58,57,57,99,99,99,29.95,28.59,2,2,2,0.00
2013-4-30,58,58,58,58,57,57,99,99,99,29.95,28.59,2,2,2,0.00
2013-5-1,58,58,58,57,57,57,99,99,99,29.95,28.59,2,2,2,0.00
2013-5-2,58,54,40,57,54,39,99,99,99,30.16,28.59,6,3,6,0.00
2013-5-3,40,40,40,39,39,39,99,99,99,30.16,28.79,6,6,6,0.00
2013-5-4,45,40,36,42,39,35,99,96,86,30.16,28.41,8,4,8,0.07
2013-5-5,62,49,35,52,44,35,99,86,65,30.01,28.56,10,4,11,0.01
2013-5-6,55,55,55,50,50,50,84,84,84,29.96,28.60,4,4,4,0.00
2013-5-7,55,55,55,50,50,50,84,84,84,29.96,28.60,4,4,4,0.00
2013-5-8,55,55,55,50,50,50,84,84,84,29.96,28.60,4,3,4,0.00
2013-5-9,61,56,55,60,51,50,99,86,84,29.96,28.52,4,3,4,0.00
2013-5-10,61,61,61,60,60,60,99,99,99,29.88,28.52,3,2,3,0.00
2013-5-11,61,61,61,60,60,60,99,99,99,29.88,28.52,3,3,3,0.00
2013-5-12,71,60,49,60,50,36,99,74,33,30.21,28.52,9,2,9,0.00
2013-5-13,83,65,46,59,52,45,99,66,38,30.10,28.62,14,4,14,0.00
2013-5-14,90,75,63,62,56,51,67,53,30,30.01,28.54,17,7,17,0.00
2013-5-15,78,69,64,68,62,52,99,79,57,29.94,28.45,16,6,16,0.78
2013-5-16,72,65,60,67,64,60,99,95,84,29.80,28.40,7,2,7,0.02
2013-5-17,85,70,56,69,64,56,99,83,55,29.87,28.44,7,1,7,0.00
2013-5-18,87,75,64,78,71,63,99,87,70,29.87,28.38,14,4,14,0.00
2013-5-19,90,79,71,72,68,64,98,72,47,29.78,28.24,22,8,22,0.09
2013-5-20,80,70,61,73,67,60,99,89,77,29.76,28.29,31,5,31,0.86
2013-5-21,64,61,58,62,60,58,99,98,94,28.50,28.15,17,5,17,1.13
2013-5-22,78,65,54,65,59,54,99,82,56,29.87,28.37,13,3,13,0.01
2013-5-23,76,64,53,65,59,53,99,85,65,30.09,28.52,8,3,8,0.00
2013-5-24,81,67,56,66,59,54,95,77,59,30.22,28.72,10,4,11,0.00
2013-5-25,86,72,57,70,61,52,85,71,57,30.17,28.64,12,4,12,0.00
2013-5-26,85,74,63,71,66,61,99,76,57,28.70,28.56,15,6,15,0.00
2013-5-27,85,76,68,72,67,61,95,77,56,29.95,28.40,20,8,20,0.00
2013-5-28,86,76,72,70,67,64,85,73,58,29.83,28.36,21,10,21,0.01
2013-5-29,74,73,73,67,66,66,79,77,75,29.82,28.37,12,5,12,0.00
2013-5-30,83,71,62,72,66,62,99,86,67,29.81,28.31,28,8,28,1.98
2013-5-31,87,76,62,76,71,61,99,85,69,29.75,28.24,20,7,20,0.01
2013-6-1,79,69,59,73,65,56,99,87,68,29.93,28.26,24,4,24,1.33
2013-6-2,71,61,52,62,57,52,99,88,71,29.99,28.56,7,2,7,0.00
2013-6-3,83,65,46,65,57,16,99,77,46,29.99,28.48,7,2,7,0.00
2013-6-4,81,68,61,70,63,58,93,83,67,29.93,28.48,9,3,9,0.00
2013-6-5,81,69,61,71,65,60,99,87,66,29.95,28.44,9,3,9,1.41
2013-6-6,74,66,58,67,62,56,99,87,71,28.53,28.47,9,3,9,0.00
2013-6-7,79,65,52,63,57,52,99,77,49,29.93,28.48,9,2,9,0.23
2013-6-8,85,69,50,64,58,50,99,71,48,29.90,28.43,10,2,10,0.00
2013-6-9,86,74,64,69,62,59,93,69,46,29.85,28.42,9,3,9,0.07
2013-6-10,93,80,67,73,66,59,81,65,40,29.87,28.44,15,5,15,0.00
2013-6-11,94,84,72,73,69,64,81,63,40,29.96,28.50,14,6,14,0.00
2013-6-12,93,83,74,73,71,69,84,68,50,29.94,28.49,18,9,18,0.00
2013-6-13,91,80,71,74,70,66,90,72,49,29.97,28.53,8,3,8,0.00
2013-6-14,96,81,68,80,72,65,93,74,54,29.98,28.51,9,3,9,0.00
2013-6-15,94,78,69,77,70,65,97,76,58,29.99,28.53,12,4,12,0.59
2013-6-16,92,78,69,75,70,13,98,79,58,29.95,28.49,13,4,13,0.20
2013-6-17,74,69,66,70,67,64,99,94,82,29.92,28.46,7,3,7,0.82
2013-6-18,90,74,62,73,66,62,99,79,47,29.98,28.53,7,2,7,0.00
2013-6-19,91,76,61,72,65,59,99,72,46,30.00,28.55,10,2,10,0.00
2013-6-20,92,79,64,74,69,62,95,72,54,30.02,28.57,12,4,12,0.00
2013-6-21,94,83,73,76,72,69,88,70,52,28.67,28.59,13,6,13,0.00
2013-6-22,92,82,73,75,70,55,85,69,51,30.02,28.53,12,5,12,0.00
2013-6-23,94,82,70,75,70,67,94,71,50,29.95,28.50,15,6,15,0.00
2013-6-24,92,82,74,74,70,67,81,67,50,29.99,28.53,15,6,15,0.00
2013-6-25,91,82,76,72,69,68,80,67,50,29.93,28.43,16,8,16,0.00
2013-6-26,96,83,76,77,72,68,88,70,55,29.87,28.42,14,6,14,0.12
2013-6-27,100,87,72,78,74,70,94,68,44,29.93,28.46,8,3,8,0.00
2013-6-28,92,83,72,74,69,60,84,65,45,28.54,28.43,8,4,8,0.00
2013-6-29,88,76,62,64,58,54,80,56,36,29.78,28.39,13,4,13,0.13
2013-6-30,80,70,60,64,59,54,89,71,55,29.91,28.43,12,4,12,0.00
2013-7-1,83,70,58,64,56,47,93,66,35,29.99,28.55,10,4,10,0.00
2013-7-2,83,69,54,61,54,51,93,63,35,30.03,28.60,11,3,11,0.00
2013-7-3,90,71,53,59,53,49,92,59,28,30.06,28.58,7,2,7,0.00
2013-7-4,89,73,57,63,57,52,89,61,32,28.65,28.55,8,2,8,0.00
2013-7-5,93,77,59,64,59,54,89,57,33,29.99,28.52,10,2,10,0.00
2013-7-6,93,78,65,65,61,57,82,58,36,29.98,28.53,8,2,8,0.00
2013-7-7,94,81,68,70,65,59,86,60,34,30.00,28.57,10,3,10,0.00
2013-7-8,96,83,69,72,67,64,82,62,42,30.04,28.61,11,3,11,0.00
2013-7-9,97,86,74,73,70,68,79,61,42,30.04,28.56,13,6,13,0.00
2013-7-10,102,87,74,73,69,65,78,57,38,29.98,28.49,12,3,12,0.00
2013-7-11,98,84,71,77,69,61,86,63,37,29.92,28.51,7,2,7,0.00
2013-7-12,97,81,69,73,65,59,78,59,41,30.00,28.55,8,2,8,0.00
2013-7-13,92,78,62,66,60,55,82,56,39,30.01,28.55,8,2,8,0.00
2013-7-14,92,78,63,64,59,54,82,55,30,30.01,28.56,9,3,9,0.00
2013-7-15,94,80,69,70,66,62,82,65,39,30.12,28.63,13,3,13,0.00
2013-7-16,93,78,68,75,69,64,89,75,52,30.22,28.75,11,2,11,0.00
2013-7-17,98,82,67,74,68,63,98,67,36,30.27,28.77,10,2,10,0.00
2013-7-18,98,83,68,72,68,64,92,63,40,30.17,28.62,7,2,7,0.00
2013-7-19,98,82,72,74,68,65,79,63,41,28.64,28.52,9,3,9,0.00
2013-7-20,97,80,69,74,69,65,91,71,43,29.92,28.42,11,4,11,0.66
2013-7-21,84,75,68,77,71,66,96,88,73,29.91,28.43,9,2,9,0.76
2013-7-22,90,76,66,74,68,63,98,80,56,29.94,28.43,13,4,13,2.37
2013-7-23,99,85,69,79,73,65,95,68,50,29.87,28.39,12,4,12,1.16
2013-7-24,88,76,67,74,70,66,99,83,61,30.16,28.46,18,4,18,2.88
2013-7-25,90,77,65,73,69,62,96,78,54,30.04,28.60,6,1,6,0.00
2013-7-26,74,71,65,72,68,63,97,90,80,29.96,28.57,7,2,7,0.98
2013-7-27,83,72,63,69,64,58,99,79,53,30.00,28.55,6,2,6,0.01
2013-7-28,83,70,62,70,63,57,90,79,59,29.99,28.57,8,2,8,0.00
2013-7-29,89,77,67,74,69,62,89,76,60,30.01,28.56,13,4,13,0.00
2013-7-30,89,79,70,75,72,68,98,81,63,30.00,28.57,10,3,10,3.62
2013-7-31,90,80,72,78,73,67,96,79,64,30.02,28.58,8,2,8,0.00
2013-8-1,92,77,65,73,68,63,97,75,48,30.03,28.56,6,1,6,0.00
2013-8-2,90,79,71,77,71,66,88,77,65,29.94,28.47,12,4,12,0.00
2013-8-3,89,78,68,78,72,67,97,83,63,30.04,28.49,10,3,11,8.39
2013-8-4,78,74,72,74,72,69,96,91,82,30.08,28.59,7,2,7,0.47
2013-8-5,95,81,72,79,74,68,95,80,59,29.98,28.44,12,4,12,0.07
2013-8-6,97,83,72,82,74,68,91,75,58,29.86,28.40,9,4,9,0.24
2013-8-7,92,81,74,80,74,70,91,78,58,29.78,28.42,9,3,9,0.08
2013-8-8,86,75,67,76,71,66,99,88,68,29.94,28.44,14,3,14,9.50
2013-8-9,86,76,70,75,70,68,97,84,67,29.99,28.50,10,2,10,0.19
2013-8-10,87,76,69,75,70,68,95,82,62,30.04,28.62,8,3,8,0.00
2013-8-11,91,78,69,77,72,66,95,81,60,30.04,28.60,6,1,6,0.00
2013-8-12,86,76,71,77,71,68,97,85,67,30.02,28.55,9,1,9,0.00
2013-8-13,80,73,66,74,70,21,96,90,78,30.01,28.56,6,1,6,0.33
2013-8-14,82,70,59,67,62,55,96,78,50,30.09,28.64,9,2,9,0.00
2013-8-15,82,66,54,62,57,52,95,74,45,30.08,28.60,8,1,8,0.00
2013-8-16,82,68,60,65,59,55,87,73,54,30.07,28.61,7,1,7,0.00
2013-8-17,84,68,54,66,60,52,96,76,53,30.10,28.64,7,1,7,0.00
2013-8-18,74,74,74,63,63,63,69,69,69,30.00,28.64,0,0,0,0.00
2013-8-19,74,74,74,63,63,63,69,69,69,30.00,28.64,0,0,0,0.00
2013-8-20,74,74,74,63,63,63,69,69,69,30.00,28.64,0,0,0,0.00
2013-8-21,74,74,74,63,63,63,69,69,69,30.00,28.64,0,0,0,0.00
2013-8-22,74,74,74,63,63,63,69,69,69,30.00,28.64,0,0,0,0.00
2013-8-23,74,74,74,63,63,63,69,69,69,30.00,28.64,0,0,0,0.00
2013-8-24,89,80,74,74,67,63,69,66,61,30.07,28.64,1,0,1,0.00
2013-8-25,89,89,89,74,74,74,61,61,61,30.07,28.70,1,1,1,0.00
2013-8-26,89,89,89,74,74,74,61,61,61,28.70,28.70,1,1,1,0.00
2013-8-27,89,89,89,74,74,74,61,61,61,30.07,28.70,1,1,1,0.00
2013-8-28,89,89,89,74,74,74,61,61,61,30.07,28.70,1,1,1,0.00
2013-8-29,89,89,89,74,74,74,61,61,61,28.70,28.70,1,1,1,0.00
2013-8-30,89,89,89,74,74,74,61,61,61,30.07,28.70,1,1,1,0.00
2013-8-31,89,89,89,74,74,74,61,61,61,30.07,28.70,1,1,1,0.00
2013-9-1,93,84,72,74,72,68,86,67,49,30.07,28.40,10,2,10,0.09
2013-9-2,87,75,65,71,66,59,96,75,50,29.95,28.49,7,2,7,0.00
2013-9-3,91,72,57,68,61,55,97,71,39,29.93,28.57,6,1,6,0.00
2013-9-4,92,73,57,68,61,56,97,70,39,30.11,28.63,6,1,6,0.00
2013-9-5,91,74,59,68,62,32,93,70,41,30.14,28.68,6,1,6,0.00
2013-9-6,93,75,59,69,63,57,94,69,41,30.05,28.60,6,1,6,0.00
2013-9-7,98,79,65,70,65,60,92,66,36,30.01,28.53,8,2,8,0.00
2013-9-8,97,82,67,70,66,62,85,62,38,28.57,28.48,9,2,9,0.00
2013-9-9,98,82,68,68,65,61,80,58,33,29.97,28.52,13,3,13,0.00
2013-9-10,97,80,65,70,63,58,84,60,29,30.09,28.59,11,2,11,0.00
2013-9-11,93,79,67,73,67,63,92,69,43,30.11,28.63,6,1,6,0.00
2013-9-12,94,78,67,74,68,64,96,73,47,30.06,28.58,7,2,7,0.00
2013-9-13,85,72,56,66,56,50,80,60,36,30.04,28.57,8,3,8,0.01
2013-9-14,85,66,50,58,52,47,96,65,34,30.03,28.56,9,1,9,0.00
2013-9-15,91,74,59,66,58,50,79,58,39,30.00,28.58,10,3,10,0.00
2013-9-16,79,72,67,70,65,61,92,81,69,30.14,28.63,6,1,6,0.32
2013-9-17,85,74,67,70,66,64,90,78,59,30.07,28.59,7,2,7,0.00
2013-9-18,91,78,69,71,66,51,85,68,48,29.98,28.52,10,4,10,0.00
2013-9-19,93,79,70,70,67,63,91,68,44,29.95,28.46,14,4,14,0.55
2013-9-20,72,66,56,69,63,52,99,90,70,29.93,28.50,9,2,9,5.89
2013-9-21,77,60,46,58,50,44,98,73,40,29.95,28.50,7,2,7,0.00
2013-9-22,80,61,45,56,49,43,98,70,35,29.83,28.45,6,1,6,0.00
2013-9-23,83,65,49,58,52,45,95,68,38,29.86,28.39,10,2,10,0.00
2013-9-24,81,68,58,61,56,53,83,68,50,28.47,28.42,7,2,7,0.00
2013-9-25,83,67,53,64,58,51,96,75,50,29.83,28.40,5,1,5,0.00
2013-9-26,89,71,56,65,60,54,94,71,40,29.90,28.44,7,2,7,0.00
2013-9-27,88,73,60,66,60,57,90,68,43,29.95,28.50,11,3,11,0.00
2013-9-28,83,70,61,68,65,59,98,86,60,29.90,28.50,15,4,15,1.58
2013-9-29,61,61,61,61,61,61,98,98,98,29.98,28.62,2,2,2,0.00
2013-9-30,61,61,61,61,61,61,98,98,98,29.98,28.62,2,2,2,0.00
2013-10-1,61,61,61,61,61,61,98,98,98,29.98,28.62,2,2,2,0.00
2013-10-2,61,61,61,61,61,61,98,98,98,29.98,28.62,2,2,2,0.00
2013-10-3,61,61,61,61,61,61,98,98,98,29.98,28.62,2,2,2,0.00
2013-10-4,61,61,61,61,61,61,98,98,98,29.98,28.62,2,2,2,0.00
2013-10-5,65,56,47,63,55,46,98,97,89,29.98,28.50,8,2,8,3.81
2013-10-6,64,53,44,49,45,42,96,75,53,29.91,28.52,8,2,8,0.01
2013-10-7,72,55,41,50,45,38,97,73,43,30.08,28.58,7,1,7,0.00
2013-10-8,76,58,44,53,47,42,97,71,38,30.09,28.62,11,2,11,0.00
2013-10-9,80,60,44,55,48,41,95,69,36,30.06,28.60,8,1,8,0.00
2013-10-10,81,62,47,61,53,45,97,75,43,30.04,28.50,8,2,8,0.00
2013-10-11,79,66,53,66,60,20,97,81,65,29.87,28.44,17,4,17,0.00
2013-10-12,69,65,59,66,61,55,98,89,81,30.01,28.47,9,3,9,0.55
2013-10-13,74,62,55,58,53,49,87,72,54,30.25,28.73,8,2,8,0.00
2013-10-14,68,61,55,61,55,47,97,81,67,30.19,28.54,13,3,13,0.59
2013-10-15,64,59,51,64,57,49,99,93,83,29.97,28.47,8,3,8,0.11
2013-10-16,63,52,41,48,44,39,96,77,55,28.69,28.56,8,2,8,0.00
2013-10-17,66,51,40,49,44,38,99,78,50,29.99,28.54,8,1,8,0.01
2013-10-18,65,48,38,54,44,36,98,86,62,29.99,28.53,7,2,7,0.35
2013-10-19,43,41,36,42,38,35,97,89,84,30.06,28.62,8,3,8,0.06
2013-10-20,43,43,43,38,38,38,84,84,84,30.06,28.70,3,3,3,0.00
2013-10-21,43,43,43,38,38,38,84,84,84,30.06,28.70,3,3,3,0.00
2013-10-22,43,43,43,38,38,38,84,84,84,30.06,28.70,3,3,3,0.00
2013-10-23,43,43,43,38,38,38,84,84,84,30.06,28.70,3,3,3,0.00
2013-10-24,50,42,34,38,36,28,84,79,48,28.95,28.70,6,2,6,0.00
2013-10-25,61,44,30,34,30,-30,88,61,29,30.41,28.77,8,2,8,0.00
2013-10-26,66,54,44,54,45,33,87,71,65,28.77,28.66,9,3,9,0.00
2013-10-27,66,51,40,51,42,32,97,74,30,30.04,28.55,5,0,5,0.00
2013-10-28,70,59,45,57,53,44,99,82,58,30.09,28.59,9,3,9,0.00
2013-10-29,70,64,57,64,61,22,95,88,82,30.06,28.55,16,6,16,0.26
2013-10-30,68,64,61,64,63,60,99,95,88,29.79,28.38,11,4,11,5.20
2013-10-31,73,60,49,66,57,23,99,90,44,29.73,28.08,17,5,17,0.85
2013-11-1,69,54,42,50,43,38,96,71,36,29.93,28.33,8,2,8,0.01
2013-11-2,57,46,35,41,37,32,89,73,51,30.14,28.56,10,3,10,0.00
2013-11-3,64,47,31,44,37,28,98,71,40,30.14,28.58,16,4,16,0.00
2013-11-4,59,54,50,51,46,40,90,73,65,30.08,28.58,13,6,13,0.00
2013-11-5,62,58,54,61,56,51,98,96,91,30.07,28.51,10,4,10,1.61
2013-11-6,62,44,32,61,43,30,99,93,82,30.27,28.45,13,4,13,1.02
2013-11-7,62,43,27,45,34,26,99,76,37,30.36,28.89,8,1,8,0.01
2013-11-8,65,49,33,41,37,6,99,66,31,30.27,28.64,16,6,16,0.00
2013-11-9,66,53,41,46,41,-7,85,65,46,30.20,28.66,10,2,10,0.00
2013-11-10,69,55,43,45,42,39,95,65,37,30.29,28.82,8,1,8,0.00
2013-11-11,68,54,41,53,46,37,85,74,57,30.33,28.73,16,4,16,0.00
2013-11-12,41,32,21,37,21,14,85,64,39,30.64,28.95,15,7,15,0.00
2013-11-13,51,34,18,22,18,13,85,57,28,30.60,28.86,10,4,10,0.00
2013-11-14,54,41,24,34,22,16,76,51,26,30.23,28.59,15,5,15,0.00
2013-11-15,60,50,42,48,42,33,87,75,63,29.95,28.42,13,5,13,0.18
2013-11-16,71,63,51,63,57,47,88,81,68,29.78,28.19,22,11,22,0.00
2013-11-17,74,66,50,64,44,21,81,50,24,30.00,28.13,24,8,24,0.00
2013-11-18,63,49,36,39,28,20,77,48,20,30.18,28.63,11,2,11,0.00
2013-11-19,62,50,39,32,25,15,65,40,23,30.17,28.61,13,4,13,0.00
2013-11-20,62,53,43,41,26,10,55,36,20,29.97,28.47,14,5,14,0.00
2013-11-21,57,50,42,51,48,40,99,92,52,30.18,28.54,12,4,12,1.48
2013-11-22,42,32,31,42,32,29,99,97,94,30.41,28.82,12,7,12,0.01
2013-11-23,38,31,22,30,23,12,95,73,48,30.56,29.03,13,7,13,0.00
2013-11-24,32,26,18,18,14,11,76,62,48,29.18,28.87,9,4,9,0.00
2013-11-25,38,33,30,29,24,15,84,69,48,30.23,28.70,10,3,10,0.00
2013-11-26,46,34,25,32,26,16,83,72,51,30.23,28.66,17,6,17,0.00
2013-11-27,38,26,17,16,12,9,75,56,32,30.20,28.83,12,4,12,0.00
2013-11-28,53,37,24,28,21,12,77,54,37,30.36,28.81,12,4,12,0.00
2013-11-29,56,39,24,38,24,19,92,60,29,30.24,28.85,9,2,9,0.00
2013-11-30,58,46,34,43,36,24,90,69,56,30.24,28.67,16,5,16,0.00
2013-12-1,55,48,40,52,46,40,99,93,86,29.90,28.44,7,1,7,0.00
2013-12-2,65,49,39,54,44,39,99,86,56,29.79,28.23,8,1,8,0.00
2013-12-3,70,51,36,54,45,36,99,82,40,29.59,28.10,10,3,10,0.00
2013-12-4,62,46,31,52,42,29,99,87,59,28.51,28.11,14,4,14,0.13
2013-12-5,31,24,19,29,20,16,92,84,69,30.16,28.51,14,7,14,0.00
2013-12-6,19,17,13,16,13,6,89,83,71,30.43,28.75,12,7,12,0.00
2013-12-7,26,15,2,13,6,-2,86,68,47,30.50,28.82,10,4,10,0.00
2013-12-8,29,25,20,26,22,12,93,87,67,30.17,28.53,8,3,8,0.00
2013-12-9,30,23,19,23,18,14,89,81,68,30.22,28.71,10,5,10,0.00
2013-12-10,33,22,12,19,15,10,90,76,53,30.32,28.80,9,3,9,0.15
2013-12-11,34,23,14,25,17,10,94,79,61,30.50,28.80,9,3,9,0.01
2013-12-12,41,27,13,24,17,9,86,68,46,30.49,28.80,13,3,13,0.28
2013-12-13,37,34,26,36,30,-60,99,85,68,30.16,28.39,15,3,15,1.28
2013-12-14,35,31,22,35,30,21,99,96,91,30.14,28.38,14,5,14,0.73
2013-12-15,49,34,19,36,28,18,98,81,58,30.15,28.66,10,4,10,0.01
2013-12-16,62,47,37,37,33,30,78,60,36,30.04,28.61,12,5,12,0.00
2013-12-17,59,44,32,38,31,25,86,63,35,30.20,28.68,13,3,13,0.00
2013-12-18,63,46,28,39,32,23,85,61,36,30.19,28.51,19,6,19,0.00
2013-12-19,61,56,51,55,48,39,81,74,59,29.87,28.28,17,10,17,0.00
2013-12-20,63,45,32,57,41,31,98,89,79,29.79,28.28,16,6,16,0.16
2013-12-21,39,35,31,39,35,31,99,99,98,29.65,28.04,11,3,11,2.14
2013-12-22,34,29,24,33,27,22,99,94,91,30.24,28.26,10,5,10,0.00
2013-12-23,30,23,14,24,20,12,92,88,74,30.47,28.88,9,4,9,0.00
2013-12-24,43,27,14,29,21,11,92,79,56,30.45,28.78,13,4,13,0.00
2013-12-25,44,32,23,35,27,20,95,83,69,30.29,28.80,7,1,7,0.00
2013-12-26,52,35,19,35,26,18,99,74,39,30.29,28.83,12,3,12,0.01
2013-12-27,58,40,26,36,29,22,90,67,36,30.33,28.85,10,3,10,0.00
2013-12-28,56,40,25,37,28,21,87,65,35,30.21,28.49,13,3,13,0.00
2013-12-29,42,30,20,36,24,14,85,79,73,30.06,28.49,13,6,13,0.00
2013-12-30,39,25,13,23,17,-14,83,72,49,30.25,28.74,10,3,10,0.00
2013-12-31,55,36,19,31,22,15,95,63,31,30.28,28.70,16,4,16,0.00
2014-1-1,57,40,22,35,26,18,84,60,35,30.06,28.43,16,6,16,0.00
2014-1-2,26,17,9,18,10,0,84,73,58,30.36,28.68,16,5,16,0.00